Time;durP1;ratioP1;P1;durP2;ratioP2;P2;SDS_P1;SDS_P2;PMS_P1;PMS_P2;Temp;Humidity;BMP_temperature;BMP_pressure;BME280_temperature;BME280_humidity;BME280_pressure;Samples;Min_cycle;Max_cycle;Signal;HPM_P1;HPM_P2
2022/10/30 00:02:08;;;;;;;43.28;29.05;;;;;;;11.33;100.00;100368.31;10421438;28;20053;-69
2022/10/30 00:07:09;;;;;;;46.47;28.40;;;;;;;11.37;100.00;100362.03;10421476;28;20050;-70
2022/10/30 00:12:11;;;;;;;36.00;26.98;;;;;;;11.30;100.00;100357.00;10421355;28;20045;-69
2022/10/30 00:17:13;;;;;;;29.15;26.27;;;;;;;11.27;100.00;100360.59;10419695;28;20469;-69
2022/10/30 00:22:15;;;;;;;50.95;32.22;;;;;;;11.11;100.00;100354.94;10435767;28;20041;-69
2022/10/30 00:27:16;;;;;;;38.15;28.67;;;;;;;11.05;100.00;100352.44;10421589;28;20049;-70
2022/10/30 00:32:18;;;;;;;39.67;26.50;;;;;;;11.19;100.00;100352.03;10421134;28;20457;-69
2022/10/30 00:37:20;;;;;;;29.70;26.75;;;;;;;11.29;100.00;100348.25;10418950;28;20108;-69
2022/10/30 00:42:21;;;;;;;27.83;24.95;;;;;;;11.14;100.00;100351.31;10420263;28;20454;-69
2022/10/30 00:47:36;;;;;;;38.85;27.30;;;;;;;11.29;100.00;100342.13;10419829;28;20132;-69
2022/10/30 00:52:43;;;;;;;29.55;25.80;;;;;;;11.27;100.00;100349.19;10435252;28;20041;-69
2022/10/30 00:57:46;;;;;;;31.30;23.48;;;;;;;11.34;100.00;100334.97;10419605;28;20037;-69
2022/10/30 01:02:49;;;;;;;28.75;23.65;;;;;;;11.35;100.00;100328.78;10417924;28;20049;-69
2022/10/30 01:07:50;;;;;;;24.60;22.42;;;;;;;11.28;100.00;100327.22;10419611;28;20037;-69
2022/10/30 01:12:55;;;;;;;26.10;22.33;;;;;;;11.30;100.00;100314.91;10417617;28;20053;-69
2022/10/30 01:18:30;;;;;;;24.77;21.67;;;;;;;11.19;100.00;100315.22;10418931;28;20045;-70
2022/10/30 01:23:54;;;;;;;26.27;21.88;;;;;;;10.97;100.00;100304.44;10433858;28;20166;-69
2022/10/30 01:29:24;;;;;;;28.30;21.73;;;;;;;10.84;100.00;100296.06;10416717;28;20049;-69
2022/10/30 01:34:34;;;;;;;24.20;21.55;;;;;;;10.57;100.00;100300.31;10416832;28;20069;-69
2022/10/30 01:39:38;;;;;;;27.73;22.27;;;;;;;10.46;100.00;100297.13;10416426;28;20042;-69
2022/10/30 01:44:40;;;;;;;35.15;24.20;;;;;;;10.57;100.00;100292.44;10416791;28;20061;-69
2022/10/30 01:50:15;;;;;;;24.15;21.58;;;;;;;10.79;100.00;100291.84;10417110;28;20527;-69
2022/10/30 01:55:29;;;;;;;23.33;20.83;;;;;;;10.77;100.00;100291.91;10417015;28;20037;-68
2022/10/30 02:00:31;;;;;;;22.25;19.92;;;;;;;10.42;100.00;100292.88;10416931;28;20044;-69
2022/10/30 02:05:41;;;;;;;23.52;20.15;;;;;;;10.23;100.00;100300.34;10415179;28;20037;-70
2022/10/30 02:10:46;;;;;;;27.70;19.77;;;;;;;10.33;100.00;100293.97;10415832;28;20056;-69
2022/10/30 02:15:49;;;;;;;22.73;19.38;;;;;;;10.40;100.00;100289.41;10414845;28;20136;-69
2022/10/30 02:20:52;;;;;;;21.33;19.08;;;;;;;10.23;100.00;100286.34;10414771;28;20046;-69
2022/10/30 02:25:54;;;;;;;20.27;18.35;;;;;;;10.13;100.00;100293.59;10414646;28;20060;-69
2022/10/30 02:30:56;;;;;;;20.27;18.27;;;;;;;10.24;100.00;100285.44;10416097;28;20041;-69
2022/10/30 02:35:58;;;;;;;24.27;17.08;;;;;;;10.40;100.00;100275.41;10415538;28;20399;-69
2022/10/30 02:40:59;;;;;;;17.95;16.20;;;;;;;10.29;100.00;100278.34;10414164;28;20560;-68
2022/10/30 02:46:02;;;;;;;18.58;16.65;;;;;;;10.46;100.00;100286.63;10414111;28;20416;-69
2022/10/30 02:51:04;;;;;;;19.02;17.17;;;;;;;10.43;100.00;100276.19;10415040;28;20050;-68
2022/10/30 02:56:08;;;;;;;25.98;18.50;;;;;;;10.60;100.00;100275.72;10413802;28;20046;-68
2022/10/30 03:01:16;;;;;;;20.63;18.58;;;;;;;10.67;100.00;100279.03;10413954;28;20049;-69
2022/10/30 03:06:18;;;;;;;24.70;18.50;;;;;;;10.82;100.00;100276.84;10413368;28;20049;-69
2022/10/30 03:11:19;;;;;;;20.58;18.48;;;;;;;10.78;100.00;100269.94;10413633;28;20049;-69
2022/10/30 03:16:29;;;;;;;19.52;17.83;;;;;;;10.93;100.00;100268.63;10413514;28;20496;-69
2022/10/30 03:21:34;;;;;;;20.25;18.35;;;;;;;10.92;100.00;100271.31;10416402;28;20569;-69
2022/10/30 03:26:35;;;;;;;24.10;19.23;;;;;;;11.17;100.00;100288.09;10429784;28;20446;-69
2022/10/30 03:31:39;;;;;;;18.45;16.65;;;;;;;11.42;100.00;100279.44;10418992;28;20049;-69
2022/10/30 03:36:45;;;;;;;19.03;17.43;;;;;;;11.36;100.00;100275.22;10420827;28;20052;-69
2022/10/30 03:41:47;;;;;;;19.02;17.52;;;;;;;11.35;100.00;100281.41;10422047;28;20064;-69
2022/10/30 03:46:49;;;;;;;20.85;18.83;;;;;;;11.39;100.00;100282.19;10422394;28;20050;-69
2022/10/30 03:52:02;;;;;;;18.85;17.17;;;;;;;11.53;100.00;100280.81;10406743;28;20043;-69
2022/10/30 03:57:04;;;;;;;21.98;19.50;;;;;;;11.53;100.00;100275.56;10421297;28;20064;-69
2022/10/30 04:02:33;;;;;;;21.13;18.88;;;;;;;11.57;100.00;100273.69;10420079;28;20099;-69
2022/10/30 04:07:35;;;;;;;22.05;20.00;;;;;;;11.90;100.00;100284.06;10419797;28;20056;-69
2022/10/30 04:12:37;;;;;;;27.17;20.75;;;;;;;12.09;100.00;100275.50;10436408;28;20048;-69
2022/10/30 04:17:38;;;;;;;24.52;18.75;;;;;;;12.05;100.00;100273.88;10419490;28;20502;-69
2022/10/30 04:22:40;;;;;;;20.17;18.27;;;;;;;12.03;100.00;100264.31;10419428;28;20053;-69
2022/10/30 04:27:43;;;;;;;20.92;18.90;;;;;;;12.28;100.00;100253.78;10419391;28;20481;-69
2022/10/30 04:32:46;;;;;;;18.38;16.73;;;;;;;12.15;100.00;100245.44;10419184;28;20109;-69
2022/10/30 04:38:09;;;;;;;17.17;15.77;;;;;;;11.90;100.00;100249.81;10419902;28;20096;-69
2022/10/30 04:43:12;;;;;;;17.48;16.05;;;;;;;11.54;100.00;100245.69;10418439;28;20077;-69
2022/10/30 04:48:16;;;;;;;16.48;15.18;;;;;;;11.31;100.00;100238.53;10418183;28;20049;-69
2022/10/30 04:53:18;;;;;;;16.95;15.30;;;;;;;11.13;100.00;100243.50;10418344;28;20079;-68
2022/10/30 04:58:22;;;;;;;16.95;15.13;;;;;;;11.24;100.00;100236.13;10417807;28;20507;-69
2022/10/30 05:03:39;;;;;;;15.80;14.10;;;;;;;11.19;100.00;100246.78;10403679;28;20053;-70
2022/10/30 05:08:47;;;;;;;17.30;14.38;;;;;;;11.07;100.00;100239.31;10456651;22;20053;-73
2022/10/30 05:14:05;;;;;;;18.30;14.63;;;;;;;11.11;100.00;100236.53;10462232;28;20535;-73
2022/10/30 05:19:07;;;;;;;17.45;14.60;;;;;;;10.98;100.00;100234.28;10463146;28;20068;-73
2022/10/30 05:24:09;;;;;;;19.58;14.60;;;;;;;11.04;100.00;100229.72;10447668;28;20055;-73
2022/10/30 05:29:17;;;;;;;14.43;13.13;;;;;;;10.84;100.00;100226.81;10461589;28;20048;-73
2022/10/30 05:34:18;;;;;;;15.95;13.65;;;;;;;10.67;100.00;100234.34;10461730;28;20049;-73
2022/10/30 05:39:24;;;;;;;15.55;14.15;;;;;;;10.63;100.00;100232.75;10461456;28;20041;-74
2022/10/30 05:44:26;;;;;;;16.00;14.10;;;;;;;10.95;100.00;100237.03;10462410;28;20502;-73
2022/10/30 05:49:47;;;;;;;15.23;13.52;;;;;;;10.97;100.00;100238.69;10462844;28;20041;-73
2022/10/30 05:54:53;;;;;;;17.58;12.73;;;;;;;10.99;100.00;100234.28;10461578;28;20048;-73
2022/10/30 06:00:04;;;;;;;17.98;13.45;;;;;;;11.27;100.00;100244.78;10461970;28;20036;-74
2022/10/30 06:05:15;;;;;;;15.00;13.48;;;;;;;11.36;100.00;100233.13;10464113;28;20057;-74
2022/10/30 06:10:17;;;;;;;17.73;13.75;;;;;;;11.32;100.00;100237.59;10461327;28;20047;-73
2022/10/30 06:15:36;;;;;;;15.18;13.43;;;;;;;11.74;100.00;100234.50;10448870;28;20567;-74
2022/10/30 06:20:38;;;;;;;17.00;15.23;;;;;;;11.74;100.00;100242.41;10462119;28;20459;-74
2022/10/30 06:26:12;;;;;;;18.65;16.52;;;;;;;11.85;100.00;100244.72;10451572;28;20417;-74
2022/10/30 06:31:17;;;;;;;19.88;16.52;;;;;;;11.96;100.00;100247.84;10460474;28;20049;-73
2022/10/30 06:36:24;;;;;;;19.60;16.70;;;;;;;11.97;100.00;100252.22;10460213;28;20395;-72
2022/10/30 06:41:27;;;;;;;18.98;17.05;;;;;;;12.07;100.00;100268.56;10460745;28;20037;-74
2022/10/30 06:46:56;;;;;;;17.23;15.82;;;;;;;12.40;100.00;100263.03;10460606;28;20128;-73
2022/10/30 06:51:58;;;;;;;16.92;15.38;;;;;;;12.32;100.00;100274.72;10462644;28;20079;-73
2022/10/30 06:57:00;;;;;;;18.60;16.80;;;;;;;12.36;100.00;100280.75;10462129;28;20041;-73
2022/10/30 07:02:28;;;;;;;21.52;16.08;;;;;;;12.72;100.00;100272.41;10439426;28;20421;-73
2022/10/30 07:07:35;;;;;;;16.50;15.13;;;;;;;12.69;100.00;100275.16;10469877;28;20417;-73
2022/10/30 07:12:37;;;;;;;17.73;16.13;;;;;;;12.73;100.00;100275.00;10471239;28;20496;-73
2022/10/30 07:17:57;;;;;;;18.20;16.63;;;;;;;12.67;100.00;100279.66;10468132;28;20053;-74
2022/10/30 07:23:00;;;;;;;16.65;15.05;;;;;;;12.63;100.00;100282.38;10450281;28;20041;-73
2022/10/30 07:28:02;;;;;;;17.85;16.17;;;;;;;13.00;100.00;100272.25;10467756;28;20476;-73
2022/10/30 07:33:10;;;;;;;16.52;14.95;;;;;;;12.83;100.00;100278.16;10469645;28;20103;-74
2022/10/30 07:38:48;;;;;;;17.85;15.02;;;;;;;13.17;100.00;100267.19;10463719;28;20041;-74
2022/10/30 07:44:01;;;;;;;15.77;14.45;;;;;;;13.20;100.00;100276.78;10467351;28;20132;-73
2022/10/30 07:49:29;;;;;;;16.98;15.27;;;;;;;13.24;100.00;100275.78;10464726;28;20094;-74
2022/10/30 07:54:35;;;;;;;16.10;14.80;;;;;;;13.37;100.00;100292.84;10470297;28;20049;-73
2022/10/30 07:59:53;;;;;;;16.85;15.55;;;;;;;13.58;100.00;100285.84;10454095;28;20051;-74
2022/10/30 08:05:16;;;;;;;18.45;16.45;;;;;;;13.79;99.42;100276.19;10470016;28;20052;-73
2022/10/30 08:10:39;;;;;;;16.13;14.55;;;;;;;13.75;98.69;100279.88;10467875;28;20112;-73
2022/10/30 08:15:41;;;;;;;15.52;14.18;;;;;;;13.80;98.71;100288.47;10469948;28;20049;-73
2022/10/30 08:20:49;;;;;;;15.80;14.38;;;;;;;13.83;98.58;100283.06;10472339;28;20414;-73
2022/10/30 08:25:51;;;;;;;17.20;15.60;;;;;;;13.92;97.60;100280.03;10471986;28;20088;-73
2022/10/30 08:30:52;;;;;;;18.15;16.42;;;;;;;13.87;99.45;100276.75;10472111;28;20426;-73
2022/10/30 08:36:07;;;;;;;15.95;14.45;;;;;;;13.80;100.00;100275.25;10466291;28;20091;-73
2022/10/30 08:41:09;;;;;;;16.58;15.18;;;;;;;13.83;100.00;100283.94;10469954;28;20045;-73
2022/10/30 08:46:17;;;;;;;16.48;15.18;;;;;;;14.21;98.10;100259.44;10469130;28;20043;-73
2022/10/30 08:51:19;;;;;;;16.40;15.10;;;;;;;14.47;95.11;100268.88;10467350;28;20037;-73
2022/10/30 08:56:21;;;;;;;13.80;12.68;;;;;;;14.41;96.89;100266.50;10467760;28;20150;-74
2022/10/30 09:01:35;;;;;;;16.85;15.13;;;;;;;14.58;95.82;100256.09;10469177;28;20102;-74
2022/10/30 09:06:52;;;;;;;16.42;15.02;;;;;;;14.74;94.61;100258.88;10469060;28;20057;-72
2022/10/30 09:12:15;;;;;;;16.48;14.90;;;;;;;15.02;92.06;100253.19;10467700;28;20045;-72
2022/10/30 09:17:19;;;;;;;16.33;14.68;;;;;;;15.20;91.46;100272.66;10467759;28;20071;-72
2022/10/30 09:22:21;;;;;;;15.63;14.25;;;;;;;15.20;92.42;100262.94;10468642;28;20037;-72
2022/10/30 09:27:23;;;;;;;16.05;14.50;;;;;;;15.36;90.50;100260.38;10466043;28;20053;-73
2022/10/30 09:32:29;;;;;;;16.08;14.68;;;;;;;15.34;91.46;100262.28;10466292;28;20053;-73
2022/10/30 09:37:39;;;;;;;16.83;15.30;;;;;;;15.46;90.71;100269.63;10467305;28;20048;-73
2022/10/30 09:42:49;;;;;;;16.40;14.93;;;;;;;15.41;91.34;100269.00;10470949;28;20048;-73
2022/10/30 09:48:07;;;;;;;15.73;14.48;;;;;;;15.59;90.99;100268.09;10487021;28;20049;-73
2022/10/30 09:53:47;;;;;;;14.35;13.35;;;;;;;15.73;90.41;100277.22;10488396;28;20044;-72
2022/10/30 09:59:07;;;;;;;16.58;15.15;;;;;;;15.70;92.28;100282.66;10510942;28;20413;-73
2022/10/30 10:04:29;;;;;;;16.15;14.88;;;;;;;16.01;89.79;100281.97;10471552;28;20151;-73
2022/10/30 10:09:48;;;;;;;16.67;15.38;;;;;;;16.16;89.55;100283.88;10470422;28;20040;-73
2022/10/30 10:15:15;;;;;;;21.75;16.50;;;;;;;16.93;85.96;100270.13;10471472;28;20068;-73
2022/10/30 10:20:34;;;;;;;15.18;14.07;;;;;;;17.84;81.74;100274.78;10508334;28;20041;-73
2022/10/30 10:25:40;;;;;;;14.23;13.13;;;;;;;18.60;76.38;100276.47;10517609;28;20094;-73
2022/10/30 10:31:20;;;;;;;15.53;14.23;;;;;;;19.54;70.98;100269.63;10509775;28;20124;-69
2022/10/30 10:36:42;;;;;;;13.50;12.52;;;;;;;19.66;69.60;100281.34;10449270;28;20414;-71
2022/10/30 10:41:54;;;;;;;14.23;13.05;;;;;;;19.40;69.44;100275.00;10456963;28;20390;-69
2022/10/30 10:47:26;;;;;;;12.88;11.73;;;;;;;19.39;73.21;100271.50;10473095;28;20126;-69
2022/10/30 10:52:42;;;;;;;14.85;13.55;;;;;;;19.38;69.48;100271.56;10498109;28;20426;-70
2022/10/30 10:57:45;;;;;;;15.57;14.25;;;;;;;19.45;71.19;100264.03;10498943;28;20095;-70
2022/10/30 11:02:50;;;;;;;13.50;12.40;;;;;;;19.76;69.50;100263.78;10497613;28;20072;-70
2022/10/30 11:07:58;;;;;;;14.20;13.17;;;;;;;20.04;67.06;100272.59;10503519;22;20521;-69
2022/10/30 11:13:00;;;;;;;13.20;12.10;;;;;;;20.25;69.50;100271.16;10456043;28;20063;-70
2022/10/30 11:18:07;;;;;;;14.07;12.88;;;;;;;20.80;65.30;100250.47;10437964;28;20049;-70
2022/10/30 11:23:37;;;;;;;12.98;11.98;;;;;;;21.59;67.78;100254.56;10455633;28;20037;-71
2022/10/30 11:28:49;;;;;;;12.45;11.35;;;;;;;21.96;61.13;100244.63;10456763;28;20085;-70
2022/10/30 11:33:51;;;;;;;12.70;11.65;;;;;;;22.92;55.09;100242.50;10457599;28;20036;-69
2022/10/30 11:39:07;;;;;;;13.20;12.00;;;;;;;22.67;55.29;100243.59;10457131;28;20421;-70
2022/10/30 11:44:10;;;;;;;12.93;11.57;;;;;;;22.20;58.49;100241.09;10453452;28;20044;-69
2022/10/30 11:49:39;;;;;;;13.63;12.35;;;;;;;21.96;58.67;100236.63;10455507;28;20045;-70
2022/10/30 11:54:47;;;;;;;11.93;11.02;;;;;;;21.83;57.79;100241.19;10464371;28;20517;-69
2022/10/30 11:59:53;;;;;;;12.85;11.80;;;;;;;21.32;60.43;100234.22;10463761;28;20052;-70
2022/10/30 12:05:00;;;;;;;15.70;12.48;;;;;;;21.03;61.19;100222.09;10463588;28;20048;-70
2022/10/30 12:10:03;;;;;;;13.35;12.40;;;;;;;20.56;63.24;100221.84;10463203;28;20045;-69
2022/10/30 12:15:20;;;;;;;13.05;11.85;;;;;;;20.33;64.62;100225.25;10461657;28;20053;-69
2022/10/30 12:20:22;;;;;;;13.43;12.23;;;;;;;20.27;65.89;100223.84;10462156;28;20048;-69
2022/10/30 12:25:31;;;;;;;13.70;12.52;;;;;;;20.20;65.57;100219.91;10462896;28;20049;-69
2022/10/30 12:30:40;;;;;;;13.25;12.00;;;;;;;20.23;65.97;100216.16;10462459;28;20095;-69
2022/10/30 12:35:57;;;;;;;12.68;11.45;;;;;;;20.19;65.17;100223.53;10462626;28;20403;-68
2022/10/30 12:41:31;;;;;;;13.05;11.75;;;;;;;19.99;65.55;100213.34;10460728;28;20037;-69
2022/10/30 12:46:41;;;;;;;13.15;12.13;;;;;;;19.90;66.79;100214.84;10461261;28;20052;-69
2022/10/30 12:51:52;;;;;;;14.00;12.80;;;;;;;19.73;68.77;100202.63;10462652;28;20045;-69
2022/10/30 12:57:14;;;;;;;13.88;12.85;;;;;;;19.71;70.03;100195.69;10461353;28;20076;-69
2022/10/30 13:02:41;;;;;;;14.35;13.25;;;;;;;19.85;69.20;100201.81;10461817;28;20386;-69
2022/10/30 13:08:00;;;;;;;20.42;13.20;;;;;;;19.76;69.40;100197.09;10461826;28;20500;-69
2022/10/30 13:13:11;;;;;;;14.57;13.50;;;;;;;19.69;70.57;100194.94;10461360;28;20122;-69
2022/10/30 13:18:25;;;;;;;15.68;12.70;;;;;;;19.76;69.77;100198.91;10461025;28;20052;-69
2022/10/30 13:23:46;;;;;;;14.73;13.43;;;;;;;19.74;69.91;100198.13;10461660;28;20389;-70
2022/10/30 13:29:06;;;;;;;14.27;13.07;;;;;;;19.54;71.77;100186.97;10460296;28;20064;-68
2022/10/30 13:34:49;;;;;;;15.20;13.77;;;;;;;19.78;70.38;100191.66;10458925;28;20143;-69
2022/10/30 13:40:04;;;;;;;13.93;12.82;;;;;;;19.60;70.29;100181.25;10460043;28;20083;-69
2022/10/30 13:45:31;;;;;;;14.37;13.00;;;;;;;19.48;70.54;100178.50;10458562;28;20107;-69
2022/10/30 13:51:11;;;;;;;13.52;12.32;;;;;;;19.51;70.06;100171.16;10459638;28;20078;-69
2022/10/30 13:56:17;;;;;;;13.82;12.45;;;;;;;19.28;71.09;100178.03;10459423;28;20148;-69
2022/10/30 14:01:31;;;;;;;13.87;12.77;;;;;;;19.39;71.12;100185.34;10457003;28;20079;-69
2022/10/30 14:06:45;;;;;;;14.68;13.27;;;;;;;19.18;71.06;100187.59;10458496;28;20052;-69
2022/10/30 14:11:46;;;;;;;14.93;13.52;;;;;;;19.27;71.30;100188.81;10457482;28;20090;-69
2022/10/30 14:17:15;;;;;;;13.45;12.45;;;;;;;18.94;73.24;100187.34;10456206;28;20044;-70
2022/10/30 14:22:23;;;;;;;16.77;15.15;;;;;;;18.80;74.84;100184.72;10454806;28;20063;-69
2022/10/30 14:27:32;;;;;;;18.00;15.35;;;;;;;18.71;76.63;100182.63;10458110;28;20051;-69
2022/10/30 14:32:37;;;;;;;16.17;14.88;;;;;;;18.72;77.16;100179.00;10457215;28;20044;-69
2022/10/30 14:37:39;;;;;;;18.27;16.45;;;;;;;18.71;78.06;100183.47;10458599;28;20041;-69
2022/10/30 14:42:51;;;;;;;17.83;16.02;;;;;;;18.35;80.34;100189.25;10458064;28;20546;-68
2022/10/30 14:48:13;;;;;;;16.95;15.65;;;;;;;18.26;81.05;100193.34;10457255;28;20056;-69
2022/10/30 14:53:27;;;;;;;17.13;15.52;;;;;;;18.18;81.38;100184.97;10457397;28;20041;-69
2022/10/30 14:58:33;;;;;;;17.52;16.00;;;;;;;18.02;82.14;100192.19;10457662;28;20398;-69
2022/10/30 15:03:42;;;;;;;18.97;17.20;;;;;;;17.77;83.53;100190.97;10458540;28;20041;-70
2022/10/30 15:08:53;;;;;;;17.70;16.40;;;;;;;17.50;85.49;100196.06;10456807;28;20151;-69
2022/10/30 15:13:59;;;;;;;19.13;17.42;;;;;;;17.32;86.93;100189.16;10455512;28;20368;-70
2022/10/30 15:19:06;;;;;;;20.75;17.48;;;;;;;17.27;86.48;100191.22;10457123;28;20104;-70
2022/10/30 15:24:16;;;;;;;18.42;16.92;;;;;;;17.12;87.49;100193.78;10459326;28;20116;-70
2022/10/30 15:29:21;;;;;;;19.55;18.05;;;;;;;16.78;89.25;100200.13;10465843;28;20071;-70
2022/10/30 15:34:24;;;;;;;22.40;20.23;;;;;;;16.53;91.57;100205.88;10465297;28;20045;-69
2022/10/30 15:39:26;;;;;;;23.73;21.25;;;;;;;16.40;91.96;100210.13;10465833;28;20387;-70
2022/10/30 15:44:32;;;;;;;22.27;20.35;;;;;;;16.52;92.04;100206.81;10465722;28;20082;-70
2022/10/30 15:49:40;;;;;;;24.30;22.00;;;;;;;16.54;92.13;100207.56;10463850;28;20390;-70
2022/10/30 15:54:44;;;;;;;24.45;22.15;;;;;;;16.32;93.67;100204.34;10465273;28;20096;-70
2022/10/30 15:59:55;;;;;;;22.92;20.98;;;;;;;16.13;94.80;100209.78;10463788;28;20045;-70
2022/10/30 16:04:56;;;;;;;23.52;21.40;;;;;;;16.09;95.70;100214.38;10485848;28;20120;-70
2022/10/30 16:10:01;;;;;;;25.80;22.63;;;;;;;15.84;98.22;100206.81;10486163;28;20037;-71
2022/10/30 16:15:07;;;;;;;23.98;21.70;;;;;;;15.62;99.07;100209.63;10464220;28;20061;-70
2022/10/30 16:20:10;;;;;;;25.70;23.13;;;;;;;15.49;100.00;100216.47;10496702;28;20040;-69
2022/10/30 16:25:16;;;;;;;26.25;23.40;;;;;;;15.44;100.00;100220.28;10505321;28;20046;-70
2022/10/30 16:30:18;;;;;;;26.58;23.75;;;;;;;15.21;100.00;100216.13;10505552;28;20090;-69
2022/10/30 16:35:23;;;;;;;26.92;24.13;;;;;;;14.91;100.00;100218.41;10506213;28;20040;-69
2022/10/30 16:40:27;;;;;;;28.58;25.63;;;;;;;14.71;100.00;100217.56;10504896;28;20040;-69
2022/10/30 16:45:32;;;;;;;32.45;26.08;;;;;;;14.45;100.00;100209.91;10503371;28;20140;-70
2022/10/30 16:50:37;;;;;;;32.40;28.13;;;;;;;14.32;100.00;100217.53;10503668;28;20072;-70
2022/10/30 16:55:39;;;;;;;41.90;30.17;;;;;;;14.36;100.00;100213.84;10498691;28;20037;-70
2022/10/30 17:01:01;;;;;;;33.10;28.83;;;;;;;14.22;100.00;100214.44;10460885;28;20453;-70
2022/10/30 17:06:43;;;;;;;34.88;26.58;;;;;;;14.03;100.00;100218.78;10446089;28;20562;-71
2022/10/30 17:11:59;;;;;;;33.33;27.85;;;;;;;14.13;100.00;100222.78;10462827;28;20056;-72
2022/10/30 17:17:01;;;;;;;34.45;28.63;;;;;;;13.74;100.00;100220.03;10463750;28;20402;-71
2022/10/30 17:22:12;;;;;;;30.60;27.33;;;;;;;13.48;100.00;100223.75;10462108;28;20098;-72
2022/10/30 17:27:35;;;;;;;31.60;28.23;;;;;;;13.43;100.00;100221.31;10461953;28;20049;-72
2022/10/30 17:32:43;;;;;;;39.63;32.33;;;;;;;13.42;100.00;100231.94;10461958;28;20091;-71
2022/10/30 17:37:45;;;;;;;43.47;34.28;;;;;;;13.40;100.00;100226.69;10461507;28;20140;-71
2022/10/30 17:42:48;;;;;;;53.50;35.92;;;;;;;13.34;100.00;100242.81;10461376;28;20049;-71
2022/10/30 17:47:50;;;;;;;48.63;34.83;;;;;;;13.25;100.00;100235.25;10460797;28;20077;-71
2022/10/30 17:52:51;;;;;;;48.22;36.00;;;;;;;13.21;100.00;100230.97;10461276;28;20453;-72
2022/10/30 17:57:53;;;;;;;40.88;33.85;;;;;;;13.10;100.00;100240.19;10460908;28;20128;-71
2022/10/30 18:02:55;;;;;;;37.75;32.90;;;;;;;13.38;100.00;100234.69;10460468;28;20044;-71
2022/10/30 18:07:57;;;;;;;46.38;33.38;;;;;;;13.51;100.00;100237.69;10461667;28;20045;-71
2022/10/30 18:12:59;;;;;;;42.05;32.53;;;;;;;13.46;100.00;100238.78;10460403;28;20395;-71
2022/10/30 18:18:02;;;;;;;39.67;32.50;;;;;;;13.56;100.00;100240.16;10460190;28;20083;-70
2022/10/30 18:23:18;;;;;;;38.30;31.80;;;;;;;13.35;100.00;100236.59;10459828;28;20557;-71
2022/10/30 18:28:40;;;;;;;43.20;30.87;;;;;;;13.31;100.00;100242.91;10458704;28;20060;-72
2022/10/30 18:33:42;;;;;;;37.40;31.65;;;;;;;13.03;100.00;100243.97;10459472;28;20048;-71
2022/10/30 18:38:43;;;;;;;41.88;31.98;;;;;;;12.83;100.00;100239.44;10457547;28;20056;-70
2022/10/30 18:43:45;;;;;;;34.33;31.00;;;;;;;12.62;100.00;100246.38;10457655;28;20045;-71
2022/10/30 18:48:48;;;;;;;43.25;33.40;;;;;;;12.76;100.00;100237.97;10458073;28;20045;-72
2022/10/30 18:53:50;;;;;;;42.40;34.08;;;;;;;12.46;100.00;100241.72;10458346;28;20422;-71
2022/10/30 18:58:53;;;;;;;44.58;34.90;;;;;;;12.33;100.00;100234.25;10457655;28;20049;-71
2022/10/30 19:04:04;;;;;;;49.17;35.47;;;;;;;12.34;100.00;100228.06;10460464;28;20037;-70
2022/10/30 19:09:06;;;;;;;46.38;37.15;;;;;;;12.10;100.00;100240.34;10459587;28;20090;-70
2022/10/30 19:14:11;;;;;;;46.53;36.35;;;;;;;12.08;100.00;100243.91;10459396;28;20052;-70
2022/10/30 19:19:13;;;;;;;47.88;35.67;;;;;;;12.24;100.00;100231.09;10458861;28;20086;-72
2022/10/30 19:24:16;;;;;;;45.88;37.30;;;;;;;11.97;100.00;100244.31;10459122;28;20128;-70
2022/10/30 19:29:18;;;;;;;44.05;35.50;;;;;;;11.78;100.00;100248.44;10459128;28;20041;-71
2022/10/30 19:34:20;;;;;;;41.88;34.72;;;;;;;11.90;100.00;100255.94;10441158;28;20047;-70
2022/10/30 19:39:22;;;;;;;49.33;38.08;;;;;;;11.75;100.00;100256.44;10457454;28;20053;-71
2022/10/30 19:44:23;;;;;;;51.05;36.38;;;;;;;11.84;100.00;100250.91;10458601;28;20568;-71
2022/10/30 19:49:25;;;;;;;49.60;37.30;;;;;;;11.82;100.00;100257.94;10458537;28;20486;-71
2022/10/30 19:54:27;;;;;;;55.45;36.33;;;;;;;11.89;100.00;100248.09;10458514;28;20128;-71
2022/10/30 19:59:28;;;;;;;49.17;37.25;;;;;;;11.78;100.00;100251.94;10458860;28;20491;-72
2022/10/30 20:04:30;;;;;;;50.22;37.13;;;;;;;11.73;100.00;100256.50;10458337;28;20045;-71
2022/10/30 20:09:32;;;;;;;49.53;37.13;;;;;;;11.65;100.00;100261.16;10457820;28;20055;-71
2022/10/30 20:14:34;;;;;;;48.00;37.70;;;;;;;11.50;100.00;100259.00;10464862;28;20526;-71
2022/10/30 20:19:35;;;;;;;58.45;38.67;;;;;;;11.35;100.00;100262.97;10463599;28;20407;-72
2022/10/30 20:24:37;;;;;;;48.75;37.25;;;;;;;11.25;100.00;100253.66;10465345;28;20498;-70
2022/10/30 20:29:42;;;;;;;58.00;38.60;;;;;;;11.25;100.00;100264.19;10465880;28;20045;-71
2022/10/30 20:34:43;;;;;;;52.45;36.25;;;;;;;11.13;100.00;100254.03;10466307;28;20500;-71
2022/10/30 20:39:50;;;;;;;42.95;34.72;;;;;;;11.11;100.00;100273.38;10467058;28;20037;-70
2022/10/30 20:44:52;;;;;;;43.10;34.13;;;;;;;11.01;100.00;100271.91;10446767;28;20045;-70
2022/10/30 20:49:54;;;;;;;37.20;32.97;;;;;;;11.07;100.00;100265.63;10465636;28;20072;-72
2022/10/30 20:54:55;;;;;;;34.10;30.83;;;;;;;10.92;100.00;100269.53;10465335;28;20106;-70
2022/10/30 20:59:57;;;;;;;36.90;30.17;;;;;;;10.74;100.00;100273.56;10446671;28;20049;-70
2022/10/30 21:04:59;;;;;;;34.15;30.58;;;;;;;11.09;100.00;100271.69;10464196;28;20037;-70
2022/10/30 21:10:21;;;;;;;36.50;30.98;;;;;;;10.72;100.00;100280.66;10465712;28;20044;-70
2022/10/30 21:15:29;;;;;;;44.50;33.25;;;;;;;10.93;100.00;100283.53;10448111;28;20049;-72
2022/10/30 21:20:31;;;;;;;43.15;30.60;;;;;;;10.57;100.00;100278.44;10464561;28;20052;-71
2022/10/30 21:25:33;;;;;;;40.85;29.30;;;;;;;10.59;100.00;100295.91;10462135;28;20079;-70
2022/10/30 21:30:35;;;;;;;38.40;30.92;;;;;;;10.90;100.00;100283.66;10464083;28;20048;-70
2022/10/30 21:35:37;;;;;;;41.53;30.65;;;;;;;10.80;100.00;100283.03;10465227;28;20041;-71
2022/10/30 21:40:39;;;;;;;32.10;27.38;;;;;;;10.50;100.00;100290.91;10463470;28;20044;-70
2022/10/30 21:45:41;;;;;;;35.75;27.83;;;;;;;10.38;100.00;100293.00;10462334;28;20037;-70
2022/10/30 21:50:43;;;;;;;37.00;28.42;;;;;;;10.44;100.00;100290.19;10462807;28;20043;-70
2022/10/30 21:55:45;;;;;;;34.50;28.38;;;;;;;10.53;100.00;100292.56;10461144;28;20052;-70
2022/10/30 22:00:47;;;;;;;42.13;31.15;;;;;;;10.47;100.00;100301.50;10460470;28;20517;-72
2022/10/30 22:05:49;;;;;;;39.35;29.92;;;;;;;10.55;100.00;100293.41;10460164;28;20049;-70
2022/10/30 22:10:50;;;;;;;41.42;31.55;;;;;;;10.43;100.00;100293.72;10460395;28;20086;-70
2022/10/30 22:15:55;;;;;;;41.88;30.17;;;;;;;10.17;100.00;100295.25;10461112;28;20450;-72
2022/10/30 22:21:02;;;;;;;45.00;27.83;;;;;;;10.44;100.00;100293.66;10459671;28;20045;-71
2022/10/30 22:26:07;;;;;;;37.60;29.63;;;;;;;10.37;100.00;100291.28;10461188;28;20052;-70
2022/10/30 22:31:15;;;;;;;38.95;29.95;;;;;;;10.06;100.00;100292.91;10462584;28;20037;-70
2022/10/30 22:36:24;;;;;;;40.10;30.83;;;;;;;9.97;100.00;100302.78;10460499;28;20079;-70
2022/10/30 22:41:28;;;;;;;30.17;26.98;;;;;;;10.07;100.00;100296.38;10459238;28;20052;-70
2022/10/30 22:46:37;;;;;;;32.95;28.85;;;;;;;10.24;100.00;100303.84;10459989;28;20043;-69
2022/10/30 22:51:39;;;;;;;29.15;26.15;;;;;;;10.27;100.00;100303.78;10457488;28;20099;-71
2022/10/30 22:56:41;;;;;;;30.02;26.55;;;;;;;10.17;100.00;100312.75;10457157;28;20045;-70